createdAt,value
2022-10-24T00:01:17.460Z,16.20
2022-10-24T00:03:44.813Z,16.20
2022-10-24T00:06:12.944Z,16.20
2022-10-24T00:08:41.180Z,16.20
2022-10-24T00:11:15.076Z,16.10
2022-10-24T00:13:42.601Z,16.00
2022-10-24T00:16:10.675Z,16.00
2022-10-24T00:18:37.751Z,16.00
2022-10-24T00:21:04.934Z,16.00
2022-10-24T00:23:31.557Z,16.00
2022-10-24T00:26:01.899Z,15.90
2022-10-24T00:28:30.151Z,15.80
2022-10-24T00:30:57.695Z,15.90
2022-10-24T00:33:24.834Z,15.80
2022-10-24T00:35:51.526Z,15.90
2022-10-24T00:38:18.150Z,15.80
2022-10-24T00:40:44.871Z,15.70
2022-10-24T00:43:19.206Z,15.70
2022-10-24T00:45:53.240Z,15.70
2022-10-24T00:48:42.059Z,15.60
2022-10-24T00:51:15.534Z,15.60
2022-10-24T00:53:46.210Z,15.60
2022-10-24T00:56:14.825Z,15.60
2022-10-24T00:58:44.593Z,15.70
2022-10-24T01:01:12.653Z,15.60
2022-10-24T01:03:39.387Z,15.60
2022-10-24T01:06:36.753Z,15.70
2022-10-24T01:09:03.283Z,15.70
2022-10-24T01:11:52.782Z,15.60
2022-10-24T01:14:44.982Z,15.60
2022-10-24T01:17:45.002Z,15.50
2022-10-24T01:20:51.179Z,15.50
2022-10-24T01:23:52.177Z,15.50
2022-10-24T01:26:40.217Z,15.40
2022-10-24T01:29:23.187Z,15.30
2022-10-24T01:32:05.568Z,15.30
2022-10-24T01:34:52.513Z,15.20
2022-10-24T01:37:25.594Z,15.10
2022-10-24T01:39:56.617Z,15.10
2022-10-24T01:42:26.430Z,15.00
2022-10-24T01:44:55.980Z,15.00
2022-10-24T01:47:28.012Z,14.90
2022-10-24T01:50:02.074Z,14.80
2022-10-24T01:52:32.968Z,14.80
2022-10-24T01:55:04.208Z,14.80
2022-10-24T01:57:37.262Z,14.80
2022-10-24T02:00:16.065Z,14.70
2022-10-24T02:03:03.004Z,14.80
2022-10-24T02:05:40.409Z,14.70
2022-10-24T02:08:13.886Z,14.70
2022-10-24T02:10:57.508Z,14.70
2022-10-24T02:13:44.975Z,14.70
2022-10-24T02:16:15.597Z,14.70
2022-10-24T02:18:42.424Z,14.70
2022-10-24T02:21:17.978Z,14.70
2022-10-24T02:23:55.912Z,14.60
2022-10-24T02:26:32.844Z,14.60
2022-10-24T02:29:06.938Z,14.60
2022-10-24T02:31:38.636Z,14.70
2022-10-24T02:34:08.861Z,14.70
2022-10-24T02:36:36.921Z,14.70
2022-10-24T02:39:06.928Z,14.70
2022-10-24T02:41:37.535Z,14.70
2022-10-24T02:44:05.781Z,14.60
2022-10-24T02:46:34.260Z,14.70
2022-10-24T02:49:03.011Z,14.60
2022-10-24T02:51:34.218Z,14.60
2022-10-24T02:54:01.954Z,14.60
2022-10-24T02:56:29.569Z,14.60
2022-10-24T02:58:56.287Z,14.60
2022-10-24T03:01:23.511Z,14.70
2022-10-24T03:03:50.291Z,14.70
2022-10-24T03:06:17.082Z,14.70
2022-10-24T03:08:43.708Z,14.70
2022-10-24T03:11:10.295Z,14.70
2022-10-24T03:13:36.894Z,14.70
2022-10-24T03:16:06.721Z,14.80
2022-10-24T03:18:35.664Z,14.90
2022-10-24T03:21:02.332Z,14.90
2022-10-24T03:23:29.111Z,14.80
2022-10-24T03:25:57.162Z,14.80
2022-10-24T03:28:24.321Z,14.80
2022-10-24T03:30:50.944Z,14.90
2022-10-24T03:33:17.726Z,14.90
2022-10-24T03:35:45.250Z,14.80
2022-10-24T03:38:11.919Z,14.80
2022-10-24T03:40:38.744Z,14.80
2022-10-24T03:43:05.351Z,14.80
2022-10-24T03:45:32.142Z,14.80
2022-10-24T03:47:58.692Z,14.70
2022-10-24T03:50:25.476Z,14.60
2022-10-24T03:52:52.125Z,14.60
2022-10-24T03:55:18.818Z,14.60
2022-10-24T03:57:45.643Z,14.50
2022-10-24T04:00:12.633Z,14.40
2022-10-24T04:02:41.605Z,14.40
2022-10-24T04:05:11.109Z,14.30
2022-10-24T04:07:37.716Z,14.30
2022-10-24T04:10:05.711Z,14.30
2022-10-24T04:12:32.833Z,14.20
2022-10-24T04:15:02.476Z,14.20
2022-10-24T04:17:32.494Z,14.10
2022-10-24T04:19:59.089Z,14.20
2022-10-24T04:22:25.667Z,14.10
2022-10-24T04:24:52.268Z,14.20
2022-10-24T04:27:19.412Z,14.10
2022-10-24T04:29:46.121Z,14.20
2022-10-24T04:32:12.748Z,14.20
2022-10-24T04:34:39.382Z,14.20
2022-10-24T04:37:06.076Z,14.10
2022-10-24T04:39:32.756Z,14.10
2022-10-24T04:41:59.545Z,14.20
2022-10-24T04:44:26.186Z,14.10
2022-10-24T04:46:52.795Z,14.10
2022-10-24T04:49:19.629Z,14.10
2022-10-24T04:51:46.345Z,14.10
2022-10-24T04:54:12.937Z,14.10
2022-10-24T04:56:39.612Z,14.20
2022-10-24T04:59:06.238Z,14.20
2022-10-24T05:01:33.145Z,14.30
2022-10-24T05:06:31.432Z,14.50
2022-10-24T05:08:58.052Z,14.70
2022-10-24T05:11:24.691Z,14.70
2022-10-24T05:13:51.491Z,14.80
2022-10-24T05:16:18.085Z,14.80
2022-10-24T05:18:44.825Z,14.80
2022-10-24T05:21:11.874Z,14.90
2022-10-24T05:23:38.490Z,15.00
2022-10-24T05:26:05.173Z,15.00
2022-10-24T05:28:31.796Z,15.00
2022-10-24T05:30:58.459Z,15.00
2022-10-24T05:33:25.097Z,15.00
2022-10-24T05:35:52.920Z,15.00
2022-10-24T05:38:19.709Z,15.00
2022-10-24T05:40:49.194Z,15.10
2022-10-24T05:43:16.380Z,15.10
2022-10-24T05:45:43.143Z,15.10
2022-10-24T05:48:10.182Z,15.10
2022-10-24T05:50:36.780Z,15.10
2022-10-24T05:53:03.737Z,15.10
2022-10-24T05:55:31.283Z,15.10
2022-10-24T05:57:57.940Z,15.10
2022-10-24T06:00:24.665Z,15.10
2022-10-24T06:02:52.031Z,15.10
2022-10-24T06:05:23.656Z,15.20
2022-10-24T06:07:51.033Z,15.20
2022-10-24T06:10:18.504Z,15.20
2022-10-24T06:12:45.863Z,15.20
2022-10-24T06:15:14.827Z,15.10
2022-10-24T06:17:43.520Z,15.10
2022-10-24T06:20:11.410Z,15.00
2022-10-24T06:22:38.304Z,14.90
2022-10-24T06:25:05.711Z,14.80
2022-10-24T06:27:32.381Z,14.70
2022-10-24T06:29:59.036Z,14.70
2022-10-24T06:32:25.630Z,14.60
2022-10-24T06:34:52.355Z,14.60
2022-10-24T06:37:18.940Z,14.60
2022-10-24T06:39:46.185Z,14.60
2022-10-24T06:42:13.596Z,14.50
2022-10-24T06:44:40.206Z,14.50
2022-10-24T06:47:07.280Z,14.50
2022-10-24T06:49:33.983Z,14.50
2022-10-24T06:52:00.645Z,14.50
2022-10-24T06:54:30.156Z,14.50
2022-10-24T06:56:57.337Z,14.50
2022-10-24T06:59:23.972Z,14.40
2022-10-24T07:01:50.707Z,14.40
2022-10-24T07:04:17.650Z,14.40
2022-10-24T07:06:44.989Z,14.40
2022-10-24T07:09:15.163Z,14.40
2022-10-24T07:11:42.756Z,14.40
2022-10-24T07:14:09.889Z,14.50
2022-10-24T07:16:37.004Z,14.40
2022-10-24T07:19:04.908Z,14.40
2022-10-24T07:21:32.778Z,14.40
2022-10-24T07:24:00.150Z,14.40
2022-10-24T07:26:28.721Z,14.30
2022-10-24T07:31:32.359Z,14.40
2022-10-24T07:34:00.490Z,14.30
2022-10-24T07:36:27.761Z,14.30
2022-10-24T07:38:57.432Z,14.30
2022-10-24T07:41:26.351Z,14.30
2022-10-24T07:43:55.137Z,14.40
2022-10-24T07:46:22.393Z,14.30
2022-10-24T07:48:50.431Z,14.30
2022-10-24T07:51:18.206Z,14.40
2022-10-24T07:53:45.285Z,14.30
2022-10-24T07:56:15.912Z,14.30
2022-10-24T07:58:44.655Z,14.30
2022-10-24T08:01:20.064Z,14.20
2022-10-24T08:03:47.258Z,14.20
2022-10-24T08:06:18.063Z,14.20
2022-10-24T08:08:45.651Z,14.20
2022-10-24T08:11:26.399Z,14.20
2022-10-24T08:13:57.304Z,14.20
2022-10-24T08:16:28.007Z,14.20
2022-10-24T08:18:58.223Z,14.20
2022-10-24T08:21:25.552Z,14.10
2022-10-24T08:23:54.823Z,14.20
2022-10-24T08:26:24.262Z,14.10
2022-10-24T08:28:51.530Z,14.20
2022-10-24T08:31:22.978Z,14.20
2022-10-24T08:33:53.470Z,14.20
2022-10-24T08:36:22.788Z,14.20
2022-10-24T08:38:49.619Z,14.20
2022-10-24T08:41:40.371Z,14.20
2022-10-24T08:44:35.672Z,14.20
2022-10-24T08:47:23.962Z,14.30
2022-10-24T08:50:11.916Z,14.30
2022-10-24T08:52:46.656Z,14.20
2022-10-24T08:55:44.303Z,14.30
2022-10-24T08:58:28.176Z,14.30
2022-10-24T09:00:58.439Z,14.30
2022-10-24T09:04:01.342Z,14.40
2022-10-24T09:06:31.760Z,14.30
2022-10-24T09:09:02.171Z,14.30
2022-10-24T09:11:44.689Z,14.30
2022-10-24T09:14:17.377Z,14.40
2022-10-24T09:16:46.003Z,14.40
2022-10-24T09:19:19.776Z,14.40
2022-10-24T09:21:47.713Z,14.40
2022-10-24T09:24:51.803Z,14.40
2022-10-24T09:27:24.796Z,14.40
2022-10-24T09:29:53.630Z,14.40
2022-10-24T09:32:27.202Z,14.40
2022-10-24T09:34:55.034Z,14.40
2022-10-24T09:37:42.443Z,14.40
2022-10-24T09:40:25.048Z,14.40
2022-10-24T09:42:54.028Z,14.40
2022-10-24T09:45:34.579Z,14.40
2022-10-24T09:48:25.868Z,14.40
2022-10-24T09:50:56.797Z,14.40
2022-10-24T09:53:35.902Z,14.40
2022-10-24T09:56:08.579Z,14.40
2022-10-24T09:58:37.851Z,14.40
2022-10-24T10:01:18.018Z,14.40
2022-10-24T10:04:08.404Z,14.40
2022-10-24T10:06:44.813Z,14.50
2022-10-24T10:09:23.475Z,14.50
2022-10-24T10:12:02.582Z,14.50
2022-10-24T10:14:30.193Z,14.50
2022-10-24T10:17:07.760Z,14.50
2022-10-24T10:19:38.407Z,14.50
2022-10-24T10:22:20.952Z,14.60
2022-10-24T10:24:47.970Z,14.60
2022-10-24T10:27:38.734Z,14.60
2022-10-24T10:30:08.787Z,14.70
2022-10-24T10:32:50.835Z,14.70
2022-10-24T10:35:31.449Z,14.70
2022-10-24T10:38:24.101Z,14.70
2022-10-24T10:41:11.036Z,14.70
2022-10-24T10:43:47.757Z,14.70
2022-10-24T10:46:44.205Z,14.70
2022-10-24T10:49:34.866Z,14.70
2022-10-24T10:52:13.592Z,14.70
2022-10-24T10:54:46.418Z,14.70
2022-10-24T10:57:22.235Z,14.70
2022-10-24T10:59:59.002Z,14.70
2022-10-24T11:03:01.575Z,14.70
2022-10-24T11:05:46.096Z,14.60
2022-10-24T11:08:47.926Z,14.70
2022-10-24T11:11:28.016Z,14.70
2022-10-24T11:14:14.926Z,14.60
2022-10-24T11:16:42.808Z,14.70
2022-10-24T11:19:28.704Z,14.60
2022-10-24T11:21:59.853Z,14.70
2022-10-24T11:24:27.422Z,14.60
2022-10-24T11:27:03.656Z,14.70
2022-10-24T11:29:50.621Z,14.70
2022-10-24T11:32:32.738Z,14.70
2022-10-24T11:35:55.702Z,14.80
2022-10-24T11:38:24.085Z,14.70
2022-10-24T11:40:58.617Z,14.80
2022-10-24T11:43:40.038Z,14.80
2022-10-24T11:46:16.231Z,14.80
2022-10-24T11:49:00.477Z,14.80
2022-10-24T11:51:39.035Z,14.90
2022-10-24T11:54:21.782Z,14.90
2022-10-24T11:57:11.655Z,14.90
2022-10-24T11:59:41.007Z,14.90
2022-10-24T12:03:08.381Z,14.90
2022-10-24T12:05:42.196Z,14.90
2022-10-24T12:08:30.460Z,14.90
2022-10-24T12:11:26.040Z,15.00
2022-10-24T12:14:10.861Z,15.00
2022-10-24T12:17:16.958Z,15.00
2022-10-24T12:19:45.721Z,15.00
2022-10-24T12:22:21.923Z,14.90
2022-10-24T12:24:48.876Z,15.00
2022-10-24T12:27:21.699Z,15.00
2022-10-24T12:30:21.684Z,15.00
2022-10-24T12:32:55.455Z,15.00
2022-10-24T12:35:31.271Z,15.00
2022-10-24T12:38:00.018Z,15.00
2022-10-24T12:40:45.399Z,15.00
2022-10-24T12:43:28.438Z,15.00
2022-10-24T12:46:00.163Z,15.10
2022-10-24T12:48:36.552Z,15.00
2022-10-24T12:51:39.607Z,15.10
2022-10-24T12:54:12.455Z,15.10
2022-10-24T12:57:05.453Z,15.10
2022-10-24T12:59:35.032Z,15.10
2022-10-24T13:02:10.891Z,15.10
2022-10-24T13:04:56.453Z,15.10
2022-10-24T13:07:48.444Z,15.20
2022-10-24T13:10:42.678Z,15.20
2022-10-24T13:13:48.073Z,15.20
2022-10-24T13:16:51.239Z,15.20
2022-10-24T13:19:22.564Z,15.20
2022-10-24T13:21:56.880Z,15.30
2022-10-24T13:24:37.332Z,15.30
2022-10-24T13:27:11.760Z,15.30
2022-10-24T13:29:41.244Z,15.30
2022-10-24T13:32:07.941Z,15.30
2022-10-24T13:34:52.728Z,15.30
2022-10-24T13:37:30.546Z,15.30
2022-10-24T13:40:21.805Z,15.30
2022-10-24T13:43:00.966Z,15.40
2022-10-24T13:45:57.531Z,15.30
2022-10-24T13:48:28.670Z,15.30
2022-10-24T13:51:27.831Z,15.30
2022-10-24T13:54:21.659Z,15.30
2022-10-24T13:56:48.583Z,15.30
2022-10-24T13:59:27.576Z,15.40
2022-10-24T14:01:56.260Z,15.30
2022-10-24T14:04:24.842Z,15.30
2022-10-24T14:06:53.192Z,15.30
2022-10-24T14:09:19.942Z,15.30
2022-10-24T14:11:48.622Z,15.30
2022-10-24T14:14:24.610Z,15.20
2022-10-24T14:17:23.056Z,15.30
2022-10-24T14:20:11.813Z,15.20
2022-10-24T14:22:40.587Z,15.20
2022-10-24T14:25:26.586Z,15.30
2022-10-24T14:27:55.760Z,15.20
2022-10-24T14:30:25.458Z,15.20
2022-10-24T14:33:22.824Z,15.20
2022-10-24T14:35:53.719Z,15.20
2022-10-24T14:38:24.745Z,15.20
2022-10-24T14:41:06.422Z,15.20
2022-10-24T14:43:35.148Z,15.20
2022-10-24T14:46:16.942Z,15.30
2022-10-24T14:48:49.823Z,15.40
2022-10-24T14:51:39.007Z,15.50
2022-10-24T14:54:41.797Z,15.50
2022-10-24T14:57:18.669Z,15.60
2022-10-24T14:59:47.555Z,15.50
2022-10-24T15:02:30.842Z,15.60
2022-10-24T15:05:19.133Z,15.50
2022-10-24T15:08:09.323Z,15.50
2022-10-24T15:10:35.486Z,15.50
2022-10-24T15:13:14.276Z,15.50
2022-10-24T15:15:43.882Z,15.50
2022-10-24T15:18:28.730Z,15.40
2022-10-24T15:21:03.632Z,15.40
2022-10-24T15:23:33.501Z,15.40
2022-10-24T15:26:18.487Z,15.40
2022-10-24T15:29:07.416Z,15.30
2022-10-24T15:31:37.178Z,15.30
2022-10-24T15:34:07.429Z,15.30
2022-10-24T15:36:36.580Z,15.20
2022-10-24T15:39:15.024Z,15.20
2022-10-24T15:41:42.246Z,15.20
2022-10-24T15:44:23.478Z,15.10
2022-10-24T15:46:50.172Z,15.10
2022-10-24T15:49:17.225Z,15.10
2022-10-24T15:51:49.018Z,15.00
2022-10-24T15:54:18.958Z,15.00
2022-10-24T15:56:45.647Z,15.00
2022-10-24T15:59:12.310Z,15.00
2022-10-24T16:01:47.340Z,15.00
2022-10-24T16:04:14.960Z,14.90
2022-10-24T16:06:41.812Z,14.90
2022-10-24T16:09:20.274Z,14.90
2022-10-24T16:11:47.202Z,14.80
2022-10-24T16:14:19.272Z,14.80
2022-10-24T16:16:45.955Z,14.80
2022-10-24T16:19:13.517Z,14.70
2022-10-24T16:21:41.838Z,14.70
2022-10-24T16:24:10.278Z,14.60
2022-10-24T16:26:37.516Z,14.50
2022-10-24T16:29:05.059Z,14.40
2022-10-24T16:31:32.373Z,14.40
2022-10-24T16:33:59.391Z,14.30
2022-10-24T16:36:26.504Z,14.10
2022-10-24T16:38:54.331Z,14.10
2022-10-24T16:41:24.015Z,14.10
2022-10-24T16:43:53.258Z,14.20
2022-10-24T16:46:21.380Z,14.10
2022-10-24T16:48:48.992Z,14.10
2022-10-24T16:51:21.814Z,14.00
2022-10-24T16:53:48.590Z,14.00
2022-10-24T16:56:16.636Z,13.90
2022-10-24T16:58:43.486Z,13.80
2022-10-24T17:01:12.895Z,13.80
2022-10-24T17:03:40.714Z,13.70
2022-10-24T17:06:08.089Z,13.70
2022-10-24T17:08:34.930Z,13.60
2022-10-24T17:11:01.792Z,13.50
2022-10-24T17:13:28.952Z,13.50
2022-10-24T17:15:56.476Z,13.50
2022-10-24T17:18:25.340Z,13.50
2022-10-24T17:20:58.263Z,13.50
2022-10-24T17:23:25.686Z,13.30
2022-10-24T17:25:52.790Z,13.30
2022-10-24T17:28:19.555Z,13.20
2022-10-24T17:30:46.465Z,13.10
2022-10-24T17:33:13.827Z,13.10
2022-10-24T17:35:46.201Z,13.10
2022-10-24T17:38:41.777Z,13.10
2022-10-24T17:41:31.466Z,13.00
2022-10-24T17:43:58.291Z,12.90
2022-10-24T17:46:25.293Z,12.80
2022-10-24T17:48:53.564Z,12.90
2022-10-24T17:51:23.056Z,13.00
2022-10-24T17:53:49.772Z,13.00
2022-10-24T17:56:17.608Z,13.00
2022-10-24T17:58:50.989Z,13.10
2022-10-24T18:01:17.747Z,13.10
2022-10-24T18:03:44.781Z,13.10
2022-10-24T18:06:12.605Z,13.10
2022-10-24T18:08:39.719Z,13.10
2022-10-24T18:11:08.978Z,13.10
2022-10-24T18:13:36.958Z,13.00
2022-10-24T18:16:12.102Z,13.00
2022-10-24T18:18:43.108Z,13.10
2022-10-24T18:21:10.784Z,13.00
2022-10-24T18:23:38.239Z,13.00
2022-10-24T18:26:10.295Z,13.00
2022-10-24T18:28:42.230Z,13.10
2022-10-24T18:31:10.762Z,13.10
2022-10-24T18:33:38.234Z,13.10
2022-10-24T18:36:07.271Z,13.10
2022-10-24T18:38:35.958Z,13.10
2022-10-24T18:41:03.760Z,13.10
2022-10-24T18:43:30.654Z,13.10
2022-10-24T18:45:57.592Z,13.10
2022-10-24T18:48:24.612Z,13.00
2022-10-24T18:50:51.552Z,13.00
2022-10-24T18:53:30.795Z,13.00
2022-10-24T18:55:57.523Z,13.00
2022-10-24T18:58:24.391Z,13.00
2022-10-24T19:00:54.020Z,13.00
2022-10-24T19:03:33.429Z,13.00
2022-10-24T19:06:24.472Z,12.90
2022-10-24T19:08:51.345Z,12.90
2022-10-24T19:11:18.315Z,13.00
2022-10-24T19:13:45.032Z,13.00
2022-10-24T19:16:17.022Z,12.90
2022-10-24T19:18:54.716Z,12.90
2022-10-24T19:21:21.986Z,12.80
2022-10-24T19:23:50.041Z,12.90
2022-10-24T19:26:16.697Z,12.80
2022-10-24T19:28:43.688Z,12.80
2022-10-24T19:31:12.399Z,12.70
2022-10-24T19:33:41.157Z,12.70
2022-10-24T19:36:08.672Z,12.70
2022-10-24T19:38:35.477Z,12.70
2022-10-24T19:43:37.187Z,12.60
2022-10-24T19:46:19.475Z,12.70
2022-10-24T19:48:49.131Z,12.60
2022-10-24T19:51:17.825Z,12.60
2022-10-24T19:53:45.750Z,12.60
2022-10-24T19:56:17.372Z,12.60
2022-10-24T19:58:45.819Z,12.60
2022-10-24T20:01:18.280Z,12.60
2022-10-24T20:03:46.403Z,12.60
2022-10-24T20:06:14.242Z,12.60
2022-10-24T20:08:41.209Z,12.60
2022-10-24T20:11:09.040Z,12.60
2022-10-24T20:13:36.073Z,12.50
2022-10-24T20:16:06.347Z,12.50
2022-10-24T20:18:35.777Z,12.40
2022-10-24T20:21:04.705Z,12.40
2022-10-24T20:23:31.545Z,12.30
2022-10-24T20:26:02.629Z,12.30
2022-10-24T20:28:29.684Z,12.30
2022-10-24T20:30:56.294Z,12.20
2022-10-24T20:33:22.863Z,12.20
2022-10-24T20:35:49.503Z,12.20
2022-10-24T20:38:16.378Z,12.20
2022-10-24T20:40:43.307Z,12.10
2022-10-24T20:43:10.194Z,12.10
2022-10-24T20:45:40.539Z,12.20
2022-10-24T20:48:07.528Z,12.20
2022-10-24T20:50:35.000Z,12.10
2022-10-24T20:53:17.104Z,12.20
2022-10-24T20:55:45.094Z,12.20
2022-10-24T20:58:14.759Z,12.20
2022-10-24T21:03:15.096Z,12.10
2022-10-24T21:05:41.746Z,12.10
2022-10-24T21:08:08.417Z,12.10
2022-10-24T21:10:35.098Z,12.00
2022-10-24T21:13:01.824Z,12.00
2022-10-24T21:15:28.459Z,12.00
2022-10-24T21:17:55.024Z,12.00
2022-10-24T21:20:21.633Z,11.90
2022-10-24T21:22:48.343Z,11.90
2022-10-24T21:25:15.206Z,11.80
2022-10-24T21:27:41.961Z,11.70
2022-10-24T21:30:12.270Z,11.70
2022-10-24T21:32:41.156Z,11.70
2022-10-24T21:35:07.816Z,11.60
2022-10-24T21:37:34.408Z,11.50
2022-10-24T21:40:01.020Z,11.50
2022-10-24T21:42:30.358Z,11.50
2022-10-24T21:44:56.979Z,11.40
2022-10-24T21:47:23.599Z,11.40
2022-10-24T21:49:50.203Z,11.40
2022-10-24T21:52:16.771Z,11.30
2022-10-24T21:54:43.541Z,11.20
2022-10-24T21:57:10.125Z,11.10
2022-10-24T21:59:36.786Z,11.10
2022-10-24T22:02:03.493Z,11.00
2022-10-24T22:04:30.185Z,10.90
2022-10-24T22:06:56.821Z,10.90
2022-10-24T22:09:26.103Z,10.90
2022-10-24T22:11:55.225Z,10.80
2022-10-24T22:14:22.007Z,10.80
2022-10-24T22:16:48.656Z,10.80
2022-10-24T22:19:15.772Z,10.70
2022-10-24T22:21:46.077Z,10.80
2022-10-24T22:24:16.026Z,10.70
2022-10-24T22:26:43.562Z,10.70
2022-10-24T22:29:13.354Z,10.60
2022-10-24T22:31:40.251Z,10.70
2022-10-24T22:34:07.239Z,10.60
2022-10-24T22:36:59.725Z,10.50
2022-10-24T22:39:26.972Z,10.50
2022-10-24T22:41:54.569Z,10.50
2022-10-24T22:44:22.113Z,10.50
2022-10-24T22:47:32.803Z,10.50
2022-10-24T22:50:25.499Z,10.50
2022-10-24T22:52:52.382Z,10.50
2022-10-24T22:55:33.673Z,10.40
2022-10-24T22:58:00.688Z,10.40
2022-10-24T23:00:27.552Z,10.30
2022-10-24T23:03:06.223Z,10.20
2022-10-24T23:08:36.568Z,10.20
2022-10-24T23:11:03.549Z,10.20
2022-10-24T23:13:30.403Z,10.20
2022-10-24T23:16:05.156Z,10.10
2022-10-24T23:18:32.119Z,10.00
2022-10-24T23:21:10.087Z,10.00
2022-10-24T23:23:36.848Z,10.00
2022-10-24T23:26:21.556Z,10.00
2022-10-24T23:29:08.364Z,10.00
2022-10-24T23:31:35.269Z,10.00
2022-10-24T23:34:02.197Z,9.90
2022-10-24T23:36:30.110Z,9.90
2022-10-24T23:38:57.140Z,9.90
2022-10-24T23:41:24.171Z,9.80
2022-10-24T23:43:50.968Z,9.80
2022-10-24T23:46:26.254Z,9.80
2022-10-24T23:49:10.659Z,9.70
2022-10-24T23:51:51.966Z,9.60
2022-10-24T23:54:24.746Z,9.50
2022-10-24T23:56:51.647Z,9.50
2022-10-24T23:59:18.226Z,9.50
